Time;durP1;ratioP1;P1;durP2;ratioP2;P2;SDS_P1;SDS_P2;PMS_P1;PMS_P2;Temp;Humidity;BMP_temperature;BMP_pressure;BME280_temperature;BME280_humidity;BME280_pressure;Samples;Min_cycle;Max_cycle;Signal;HPM_P1;HPM_P2
2022/07/02 00:01:23;;;;;;;5.13;1.63;;;;;;;;;;5063494;28;20402;-59
2022/07/02 00:03:50;;;;;;;3.80;1.33;;;;;;;;;;5064797;28;20092;-59
2022/07/02 00:06:19;;;;;;;3.15;1.65;;;;;;;;;;5064836;28;20442;-59
2022/07/02 00:08:46;;;;;;;2.00;1.30;;;;;;;;;;5064038;28;20044;-59
2022/07/02 00:11:15;;;;;;;4.18;1.80;;;;;;;;;;5065268;28;20048;-59
2022/07/02 00:13:41;;;;;;;4.75;1.70;;;;;;;;;;5064212;28;20044;-59
2022/07/02 00:16:09;;;;;;;4.25;1.75;;;;;;;;;;5064639;28;20056;-59
2022/07/02 00:18:35;;;;;;;;;;;;;;;;;;5064716;28;20045;-59
2022/07/02 00:21:02;;;;;;;5.10;1.70;;;;;;;;;;5064993;28;20016;-59
2022/07/02 00:23:28;;;;;;;3.95;1.55;;;;;;;;;;5064496;28;20482;-59
2022/07/02 00:25:57;;;;;;;3.85;1.42;;;;;;;;;;5064771;28;20040;-59
2022/07/02 00:28:25;;;;;;;3.13;1.42;;;;;;;;;;5067823;28;20053;-59
2022/07/02 00:30:52;;;;;;;2.67;1.60;;;;;;;;;;5068928;28;20044;-58
2022/07/02 00:33:18;;;;;;;3.75;1.45;;;;;;;;;;5068234;28;20060;-59
2022/07/02 00:35:45;;;;;;;5.22;1.92;;;;;;;;;;5068713;28;20745;-59
2022/07/02 00:38:12;;;;;;;3.13;1.90;;;;;;;;;;5069272;28;20514;-59
2022/07/02 00:40:38;;;;;;;7.68;1.83;;;;;;;;;;5061812;28;20040;-59
2022/07/02 00:43:05;;;;;;;4.97;1.95;;;;;;;;;;5068699;28;20040;-59
2022/07/02 00:45:33;;;;;;;4.55;1.80;;;;;;;;;;5068630;28;20098;-59
2022/07/02 00:47:59;;;;;;;6.72;1.70;;;;;;;;;;5067590;28;20106;-59
2022/07/02 00:50:26;;;;;;;3.25;1.90;;;;;;;;;;5068116;28;20076;-58
2022/07/02 00:52:52;;;;;;;4.47;1.77;;;;;;;;;;5068482;28;20402;-59
2022/07/02 00:55:18;;;;;;;4.85;2.33;;;;;;;;;;5068544;28;20482;-59
2022/07/02 00:57:46;;;;;;;5.95;2.40;;;;;;;;;;5068698;28;20050;-59
2022/07/02 01:00:15;;;;;;;4.80;2.20;;;;;;;;;;5055160;28;20041;-59
2022/07/02 01:02:44;;;;;;;6.57;1.88;;;;;;;;;;5068431;28;20071;-59
2022/07/02 01:05:10;;;;;;;2.10;1.60;;;;;;;;;;5068688;28;20051;-59
2022/07/02 01:07:36;;;;;;;3.85;1.85;;;;;;;;;;5068232;28;20041;-60
2022/07/02 01:10:18;;;;;;;3.13;1.60;;;;;;;;;;5068472;28;20341;-59
2022/07/02 01:12:46;;;;;;;5.18;2.15;;;;;;;;;;5068201;28;20041;-59
2022/07/02 01:15:12;;;;;;;4.78;1.80;;;;;;;;;;5067954;28;20494;-59
2022/07/02 01:17:39;;;;;;;4.22;1.40;;;;;;;;;;5068070;28;20139;-59
2022/07/02 01:20:06;;;;;;;3.78;1.40;;;;;;;;;;5068095;28;20037;-59
2022/07/02 01:22:32;;;;;;;3.13;1.55;;;;;;;;;;5067779;28;20433;-59
2022/07/02 01:24:59;;;;;;;3.63;1.70;;;;;;;;;;5068188;28;20131;-59
2022/07/02 01:27:25;;;;;;;6.22;1.60;;;;;;;;;;5067684;28;20109;-59
2022/07/02 01:29:51;;;;;;;4.85;1.92;;;;;;;;;;5067861;28;20498;-59
2022/07/02 01:32:17;;;;;;;5.68;2.20;;;;;;;;;;5066553;28;20044;-59
2022/07/02 01:34:45;;;;;;;4.63;2.13;;;;;;;;;;5067819;28;20063;-60
2022/07/02 01:37:13;;;;;;;4.28;2.03;;;;;;;;;;5068142;28;20071;-59
2022/07/02 01:39:40;;;;;;;6.57;1.80;;;;;;;;;;5068158;28;20098;-59
2022/07/02 01:42:07;;;;;;;5.03;2.17;;;;;;;;;;5067437;28;20298;-59
2022/07/02 01:44:34;;;;;;;3.60;1.85;;;;;;;;;;5067538;28;20048;-59
2022/07/02 01:47:01;;;;;;;4.03;2.00;;;;;;;;;;5067875;28;20178;-59
2022/07/02 01:49:27;;;;;;;7.40;1.92;;;;;;;;;;5066184;28;20066;-59
2022/07/02 01:51:54;;;;;;;4.93;1.98;;;;;;;;;;5066596;28;20489;-59
2022/07/02 01:54:20;;;;;;;5.93;2.28;;;;;;;;;;5067405;28;20050;-59
2022/07/02 01:56:46;;;;;;;5.07;2.35;;;;;;;;;;5067553;28;20563;-59
2022/07/02 01:59:13;;;;;;;4.32;2.13;;;;;;;;;;5067702;28;20044;-59
2022/07/02 02:01:40;;;;;;;7.63;2.30;;;;;;;;;;5067821;28;20048;-60
2022/07/02 02:04:06;;;;;;;3.40;2.50;;;;;;;;;;5066233;28;20072;-59
2022/07/02 02:06:32;;;;;;;3.00;2.15;;;;;;;;;;5067196;28;20417;-59
2022/07/02 02:08:58;;;;;;;5.85;2.60;;;;;;;;;;5067252;28;20604;-59
2022/07/02 02:11:25;;;;;;;4.70;2.22;;;;;;;;;;5066668;28;20521;-59
2022/07/02 02:13:51;;;;;;;3.20;2.38;;;;;;;;;;5066362;28;20052;-59
2022/07/02 02:16:18;;;;;;;6.78;2.50;;;;;;;;;;5066410;28;20052;-59
2022/07/02 02:18:44;;;;;;;4.57;2.42;;;;;;;;;;5066389;28;20075;-59
2022/07/02 02:21:10;;;;;;;6.70;2.88;;;;;;;;;;5067380;28;20028;-59
2022/07/02 02:23:36;;;;;;;5.85;2.63;;;;;;;;;;5066564;28;20065;-59
2022/07/02 02:26:03;;;;;;;8.15;2.28;;;;;;;;;;5067017;28;20260;-59
2022/07/02 02:28:29;;;;;;;4.90;2.22;;;;;;;;;;5066719;28;20086;-59
2022/07/02 02:30:55;;;;;;;6.75;2.50;;;;;;;;;;5066506;28;20048;-59
2022/07/02 02:33:21;;;;;;;4.55;2.60;;;;;;;;;;5065568;28;20498;-59
2022/07/02 02:35:47;;;;;;;3.83;2.53;;;;;;;;;;5066802;28;20040;-59
2022/07/02 02:38:14;;;;;;;8.30;2.97;;;;;;;;;;5066387;28;20052;-60
2022/07/02 02:40:40;;;;;;;6.05;2.80;;;;;;;;;;5067049;28;20044;-59
2022/07/02 02:43:06;;;;;;;3.67;2.53;;;;;;;;;;5066716;28;20055;-59
2022/07/02 02:45:32;;;;;;;10.07;2.70;;;;;;;;;;5064703;28;20040;-59
2022/07/02 02:47:58;;;;;;;8.52;2.50;;;;;;;;;;5065924;28;20131;-59
2022/07/02 02:50:24;;;;;;;3.70;2.60;;;;;;;;;;5065621;28;20494;-59
2022/07/02 02:52:51;;;;;;;6.47;2.80;;;;;;;;;;5065903;28;20029;-59
2022/07/02 02:55:17;;;;;;;4.60;2.65;;;;;;;;;;5066349;28;20043;-60
2022/07/02 02:57:44;;;;;;;6.13;2.45;;;;;;;;;;5066373;28;20072;-59
2022/07/02 03:00:10;;;;;;;6.63;2.53;;;;;;;;;;5066631;28;20139;-59
2022/07/02 03:02:36;;;;;;;4.75;2.60;;;;;;;;;;5065409;28;20094;-59
2022/07/02 03:05:03;;;;;;;7.18;2.75;;;;;;;;;;5065153;28;20037;-59
2022/07/02 03:07:29;;;;;;;6.00;3.17;;;;;;;;;;5065556;28;20123;-59
2022/07/02 03:09:55;;;;;;;3.65;2.85;;;;;;;;;;5065913;28;20052;-59
2022/07/02 03:12:21;;;;;;;8.20;2.92;;;;;;;;;;5065880;28;20045;-59
2022/07/02 03:14:47;;;;;;;5.60;3.10;;;;;;;;;;5065821;28;20196;-59
2022/07/02 03:17:13;;;;;;;12.90;3.10;;;;;;;;;;5063669;28;20729;-59
2022/07/02 03:19:40;;;;;;;7.28;3.28;;;;;;;;;;5066454;28;20504;-60
2022/07/02 03:22:06;;;;;;;5.80;2.83;;;;;;;;;;5065483;28;20037;-59
2022/07/02 03:24:32;;;;;;;7.70;3.28;;;;;;;;;;5065559;28;20044;-60
2022/07/02 03:26:58;;;;;;;6.60;3.50;;;;;;;;;;5065549;28;20090;-59
2022/07/02 03:29:24;;;;;;;8.35;3.00;;;;;;;;;;5064863;28;20402;-59
2022/07/02 03:31:50;;;;;;;5.82;3.17;;;;;;;;;;5065368;28;20045;-59
2022/07/02 03:34:16;;;;;;;7.90;3.80;;;;;;;;;;5064599;28;20041;-59
2022/07/02 03:36:42;;;;;;;7.25;3.50;;;;;;;;;;5065478;28;20406;-59
2022/07/02 03:39:09;;;;;;;5.85;3.60;;;;;;;;;;5065863;28;20084;-59
2022/07/02 03:41:35;;;;;;;5.85;3.30;;;;;;;;;;5065371;28;20045;-59
2022/07/02 03:44:01;;;;;;;6.32;3.13;;;;;;;;;;5065329;28;20036;-60
2022/07/02 03:46:27;;;;;;;8.90;3.33;;;;;;;;;;5065288;28;20045;-59
2022/07/02 03:48:53;;;;;;;9.10;4.15;;;;;;;;;;5065062;28;20123;-59
2022/07/02 03:51:21;;;;;;;10.52;3.95;;;;;;;;;;5064702;28;20106;-59
2022/07/02 03:53:48;;;;;;;6.03;3.70;;;;;;;;;;5065238;28;20072;-59
2022/07/02 03:56:14;;;;;;;7.73;3.93;;;;;;;;;;5065086;28;20093;-59
2022/07/02 03:58:41;;;;;;;7.70;3.92;;;;;;;;;;5065664;28;20422;-59
2022/07/02 04:01:07;;;;;;;7.57;3.25;;;;;;;;;;5065317;28;20071;-59
2022/07/02 04:03:34;;;;;;;6.65;3.90;;;;;;;;;;5064070;28;20410;-59
2022/07/02 04:06:00;;;;;;;7.28;3.85;;;;;;;;;;5064752;28;20505;-59
2022/07/02 04:08:27;;;;;;;5.95;3.78;;;;;;;;;;5065088;28;20037;-59
2022/07/02 04:10:53;;;;;;;7.40;3.92;;;;;;;;;;5065239;28;20457;-59
2022/07/02 04:13:19;;;;;;;8.50;3.90;;;;;;;;;;5063253;28;20052;-59
2022/07/02 04:15:45;;;;;;;6.18;3.90;;;;;;;;;;5065233;28;20144;-59
2022/07/02 04:18:11;;;;;;;7.28;4.13;;;;;;;;;;5064590;28;20045;-59
2022/07/02 04:20:37;;;;;;;6.25;4.05;;;;;;;;;;5064925;28;20090;-59
2022/07/02 04:23:04;;;;;;;6.72;3.60;;;;;;;;;;5064888;28;20494;-59
2022/07/02 04:25:30;;;;;;;6.13;3.97;;;;;;;;;;5064995;28;20094;-59
2022/07/02 04:27:56;;;;;;;8.40;4.05;;;;;;;;;;5064527;28;20055;-59
2022/07/02 04:30:22;;;;;;;9.20;4.30;;;;;;;;;;5064380;28;20485;-59
2022/07/02 04:32:49;;;;;;;9.20;4.65;;;;;;;;;;5063896;28;20051;-59
2022/07/02 04:35:15;;;;;;;10.13;5.78;;;;;;;;;;5064538;28;20141;-59
2022/07/02 04:37:41;;;;;;;7.63;4.88;;;;;;;;;;5065327;28;20055;-59
2022/07/02 04:40:07;;;;;;;8.07;5.60;;;;;;;;;;5064941;28;20051;-59
2022/07/02 04:42:34;;;;;;;10.30;5.50;;;;;;;;;;5064662;28;20093;-59
2022/07/02 04:45:00;;;;;;;10.68;5.25;;;;;;;;;;5065100;28;20584;-59
2022/07/02 04:47:26;;;;;;;7.80;5.07;;;;;;;;;;5063377;28;20059;-59
2022/07/02 04:49:52;;;;;;;15.07;5.82;;;;;;;;;;5065047;28;20047;-59
2022/07/02 04:52:18;;;;;;;11.70;5.18;;;;;;;;;;5064355;28;20044;-59
2022/07/02 04:54:44;;;;;;;9.55;5.45;;;;;;;;;;5064548;28;20119;-59
2022/07/02 04:57:10;;;;;;;10.20;5.35;;;;;;;;;;5065182;28;20056;-59
2022/07/02 04:59:37;;;;;;;11.35;5.30;;;;;;;;;;5064558;28;20033;-59
2022/07/02 05:02:03;;;;;;;11.00;5.82;;;;;;;;;;5063705;28;20246;-58
2022/07/02 05:04:29;;;;;;;15.93;5.30;;;;;;;;;;5063371;28;20083;-59
2022/07/02 05:06:55;;;;;;;10.23;5.40;;;;;;;;;;5064391;28;20823;-59
2022/07/02 05:09:23;;;;;;;18.98;5.35;;;;;;;;;;5063200;28;20051;-59
2022/07/02 05:11:49;;;;;;;10.55;5.60;;;;;;;;;;5064618;28;20098;-59
2022/07/02 05:14:15;;;;;;;18.15;5.85;;;;;;;;;;5068137;28;20044;-59
2022/07/02 05:16:41;;;;;;;11.48;5.05;;;;;;;;;;5067072;28;20051;-59
2022/07/02 05:19:07;;;;;;;11.48;5.60;;;;;;;;;;5068393;28;20105;-59
2022/07/02 05:21:34;;;;;;;11.10;4.95;;;;;;;;;;5065012;28;20048;-59
2022/07/02 05:24:00;;;;;;;8.05;4.28;;;;;;;;;;5065945;28;20564;-59
2022/07/02 05:26:26;;;;;;;10.63;4.53;;;;;;;;;;5065677;28;20060;-59
2022/07/02 05:28:52;;;;;;;10.73;5.35;;;;;;;;;;5065115;28;20501;-59
2022/07/02 05:31:18;;;;;;;8.88;4.18;;;;;;;;;;5065569;28;20594;-59
2022/07/02 05:33:44;;;;;;;11.75;4.75;;;;;;;;;;5064869;28;20530;-59
2022/07/02 05:36:11;;;;;;;8.52;5.38;;;;;;;;;;5064383;28;20486;-59
2022/07/02 05:38:37;;;;;;;9.43;4.85;;;;;;;;;;5065066;28;20036;-59
2022/07/02 05:41:03;;;;;;;6.55;4.50;;;;;;;;;;5065527;28;20489;-59
2022/07/02 05:43:29;;;;;;;12.15;4.55;;;;;;;;;;5065419;28;20488;-59
2022/07/02 05:45:55;;;;;;;10.57;4.68;;;;;;;;;;5062342;28;20133;-58
2022/07/02 05:48:21;;;;;;;9.60;4.50;;;;;;;;;;5059594;28;20060;-59
2022/07/02 05:50:48;;;;;;;7.60;3.92;;;;;;;;;;5064883;28;20051;-59
2022/07/02 05:53:14;;;;;;;13.63;4.38;;;;;;;;;;5067048;28;20040;-59
2022/07/02 05:55:40;;;;;;;12.55;4.10;;;;;;;;;;5065998;28;20679;-58
2022/07/02 05:58:07;;;;;;;10.38;4.15;;;;;;;;;;5067875;28;20033;-59
2022/07/02 06:00:33;;;;;;;14.52;3.58;;;;;;;;;;5065949;28;20142;-59
2022/07/02 06:02:59;;;;;;;5.25;3.65;;;;;;;;;;5067093;28;20511;-59
2022/07/02 06:08:10;;;;;;;6.72;3.40;;;;;;;;;;5067594;28;20486;-59
2022/07/02 06:10:36;;;;;;;10.85;4.10;;;;;;;;;;5067509;28;20079;-59
2022/07/02 06:13:02;;;;;;;10.35;3.60;;;;;;;;;;5067378;28;20475;-58
2022/07/02 06:15:29;;;;;;;13.75;3.30;;;;;;;;;;5067492;28;20083;-59
2022/07/02 06:17:58;;;;;;;7.45;2.83;;;;;;;;;;5066533;28;20135;-59
2022/07/02 06:20:24;;;;;;;8.68;3.25;;;;;;;;;;5054513;28;20051;-59
2022/07/02 06:22:51;;;;;;;6.10;2.50;;;;;;;;;;5067695;28;20111;-59
2022/07/02 06:25:17;;;;;;;3.58;2.08;;;;;;;;;;5066221;28;20048;-59
2022/07/02 06:27:43;;;;;;;5.10;2.10;;;;;;;;;;5067131;28;20033;-60
2022/07/02 06:30:11;;;;;;;4.15;1.90;;;;;;;;;;5066454;28;20040;-59
2022/07/02 06:32:37;;;;;;;4.95;1.85;;;;;;;;;;5065797;28;20041;-59
2022/07/02 06:35:04;;;;;;;4.90;1.60;;;;;;;;;;5067407;28;20564;-59
2022/07/02 06:37:30;;;;;;;3.42;1.60;;;;;;;;;;5067063;28;20045;-59
2022/07/02 06:39:56;;;;;;;2.92;1.67;;;;;;;;;;5067352;28;20041;-59
2022/07/02 06:42:23;;;;;;;4.95;2.03;;;;;;;;;;5065489;28;20071;-59
2022/07/02 06:44:51;;;;;;;4.73;1.70;;;;;;;;;;5065432;28;20044;-59
2022/07/02 06:47:18;;;;;;;5.38;1.85;;;;;;;;;;5063216;28;20064;-59
2022/07/02 06:49:44;;;;;;;6.68;2.00;;;;;;;;;;5064489;28;20044;-59
2022/07/02 06:52:11;;;;;;;11.35;2.45;;;;;;;;;;5066334;28;20048;-59
2022/07/02 06:54:38;;;;;;;9.63;1.60;;;;;;;;;;5066516;28;20140;-59
2022/07/02 06:57:05;;;;;;;9.05;2.03;;;;;;;;;;5063294;28;20043;-59
2022/07/02 06:59:31;;;;;;;11.23;1.52;;;;;;;;;;5065956;28;20048;-59
2022/07/02 07:01:58;;;;;;;5.28;2.05;;;;;;;;;;5065197;28;20474;-60
2022/07/02 07:04:24;;;;;;;5.22;1.90;;;;;;;;;;5063958;28;20117;-59
2022/07/02 07:06:51;;;;;;;5.72;1.65;;;;;;;;;;5064689;28;20045;-60
2022/07/02 07:09:18;;;;;;;2.77;1.40;;;;;;;;;;5066136;28;20732;-59
2022/07/02 07:11:44;;;;;;;3.65;1.13;;;;;;;;;;5066195;28;20102;-60
2022/07/02 07:14:10;;;;;;;3.78;1.20;;;;;;;;;;5066667;28;20098;-59
2022/07/02 07:16:36;;;;;;;6.28;1.30;;;;;;;;;;5060874;28;20055;-59
2022/07/02 07:19:04;;;;;;;3.75;1.33;;;;;;;;;;5063844;28;20342;-59
2022/07/02 07:21:31;;;;;;;4.18;1.20;;;;;;;;;;5064977;28;20070;-59
2022/07/02 07:23:57;;;;;;;5.55;1.00;;;;;;;;;;5065238;28;20482;-59
2022/07/02 07:26:23;;;;;;;3.42;1.10;;;;;;;;;;5062822;28;20036;-59
2022/07/02 07:28:49;;;;;;;2.42;1.10;;;;;;;;;;5066090;28;20047;-59
2022/07/02 07:31:20;;;;;;;2.72;1.20;;;;;;;;;;5063946;28;20681;-61
2022/07/02 07:33:46;;;;;;;4.97;1.10;;;;;;;;;;5066417;28;20155;-60
2022/07/02 07:36:12;;;;;;;2.38;1.00;;;;;;;;;;5065891;28;20045;-60
2022/07/02 07:38:39;;;;;;;4.60;1.20;;;;;;;;;;5066090;28;20047;-60
2022/07/02 07:41:05;;;;;;;3.05;1.20;;;;;;;;;;5065273;28;20047;-60
2022/07/02 07:43:31;;;;;;;2.53;0.82;;;;;;;;;;5065209;28;20131;-60
2022/07/02 07:45:57;;;;;;;3.20;1.00;;;;;;;;;;5066319;28;20439;-60
2022/07/02 07:48:24;;;;;;;1.65;0.80;;;;;;;;;;5065054;28;20036;-60
2022/07/02 07:50:50;;;;;;;7.68;1.10;;;;;;;;;;5065945;28;20055;-59
2022/07/02 07:53:16;;;;;;;3.55;1.15;;;;;;;;;;5065690;28;20371;-59
2022/07/02 07:55:43;;;;;;;3.80;0.80;;;;;;;;;;5065009;28;20054;-59
2022/07/02 07:58:09;;;;;;;5.80;1.00;;;;;;;;;;5065934;28;20079;-59
2022/07/02 08:00:35;;;;;;;5.63;0.90;;;;;;;;;;5057626;28;20521;-59
2022/07/02 08:03:01;;;;;;;5.15;0.95;;;;;;;;;;5063416;28;20094;-59
2022/07/02 08:05:28;;;;;;;3.28;0.80;;;;;;;;;;5065709;28;20332;-58
2022/07/02 08:07:54;;;;;;;1.90;0.80;;;;;;;;;;5065488;28;20406;-57
2022/07/02 08:10:20;;;;;;;2.10;0.77;;;;;;;;;;5065641;28;20120;-57
2022/07/02 08:12:48;;;;;;;3.22;0.85;;;;;;;;;;5063740;28;20055;-57
2022/07/02 08:15:14;;;;;;;3.20;0.70;;;;;;;;;;5064787;28;20143;-57
2022/07/02 08:17:40;;;;;;;2.10;0.50;;;;;;;;;;5064338;28;20074;-59
2022/07/02 08:20:07;;;;;;;3.63;1.00;;;;;;;;;;5064007;28;20040;-61
2022/07/02 08:22:34;;;;;;;4.07;0.75;;;;;;;;;;5064535;28;20080;-61
2022/07/02 08:25:00;;;;;;;5.88;1.10;;;;;;;;;;5064516;28;20055;-59
2022/07/02 08:27:26;;;;;;;2.10;0.70;;;;;;;;;;5064070;28;20128;-60
2022/07/02 08:29:52;;;;;;;1.77;0.80;;;;;;;;;;5064922;28;20115;-61
2022/07/02 08:32:18;;;;;;;3.28;0.80;;;;;;;;;;5063332;28;20052;-60
2022/07/02 08:34:44;;;;;;;9.32;1.20;;;;;;;;;;5064528;28;20124;-60
2022/07/02 08:37:11;;;;;;;2.20;0.75;;;;;;;;;;5065613;28;20036;-60
2022/07/02 08:39:37;;;;;;;3.05;0.88;;;;;;;;;;5065032;28;20037;-60
2022/07/02 08:45:26;;;;;;;3.15;0.50;;;;;;;;;;5058042;28;20558;-62
2022/07/02 08:47:54;;;;;;;0.77;0.30;;;;;;;;;;5065244;28;20054;-62
2022/07/02 08:50:21;;;;;;;1.70;0.47;;;;;;;;;;5068419;28;20052;-62
2022/07/02 08:52:49;;;;;;;0.88;0.40;;;;;;;;;;5068340;28;20036;-62
2022/07/02 08:55:15;;;;;;;6.53;0.60;;;;;;;;;;5068908;28;20040;-62
2022/07/02 08:57:41;;;;;;;2.15;0.30;;;;;;;;;;5068945;28;20124;-61
2022/07/02 09:00:08;;;;;;;1.20;0.30;;;;;;;;;;5068804;28;20504;-61
2022/07/02 09:02:36;;;;;;;0.95;0.30;;;;;;;;;;5066764;28;20040;-61
2022/07/02 09:05:03;;;;;;;1.42;0.30;;;;;;;;;;5067939;28;20074;-61
2022/07/02 09:07:29;;;;;;;2.10;0.32;;;;;;;;;;5067724;28;20068;-61
2022/07/02 09:09:56;;;;;;;0.98;0.30;;;;;;;;;;5067004;28;20098;-62
2022/07/02 09:12:23;;;;;;;3.90;0.57;;;;;;;;;;5066362;28;20062;-61
2022/07/02 09:14:50;;;;;;;1.30;0.40;;;;;;;;;;5068036;28;20057;-62
2022/07/02 09:17:16;;;;;;;2.20;0.60;;;;;;;;;;5066103;28;20378;-62
2022/07/02 09:19:42;;;;;;;2.00;0.40;;;;;;;;;;5067916;28;20055;-62
2022/07/02 09:22:09;;;;;;;1.67;0.22;;;;;;;;;;5068153;28;20086;-61
2022/07/02 09:24:36;;;;;;;4.25;0.40;;;;;;;;;;5067551;28;20040;-61
2022/07/02 09:27:03;;;;;;;0.85;0.30;;;;;;;;;;5068278;28;20123;-61
2022/07/02 09:29:29;;;;;;;2.17;0.20;;;;;;;;;;5067979;28;20255;-62
2022/07/02 09:31:55;;;;;;;3.22;0.45;;;;;;;;;;5056563;28;20393;-62
2022/07/02 09:34:24;;;;;;;2.05;0.40;;;;;;;;;;5064043;28;20051;-61
2022/07/02 09:36:50;;;;;;;4.47;0.30;;;;;;;;;;5064579;28;20048;-61
2022/07/02 09:39:26;;;;;;;2.92;0.35;;;;;;;;;;5065157;28;20032;-62
2022/07/02 09:41:52;;;;;;;1.90;0.60;;;;;;;;;;5065172;28;20037;-61
2022/07/02 09:44:18;;;;;;;0.82;0.30;;;;;;;;;;5064020;28;20040;-62
2022/07/02 09:46:44;;;;;;;3.55;0.40;;;;;;;;;;5063847;28;20044;-63
2022/07/02 09:49:12;;;;;;;0.90;0.20;;;;;;;;;;5064437;28;20068;-60
2022/07/02 09:51:54;;;;;;;2.80;0.20;;;;;;;;;;5064246;28;20099;-63
2022/07/02 09:54:21;;;;;;;10.55;0.50;;;;;;;;;;5061994;28;20051;-60
2022/07/02 09:56:55;;;;;;;0.55;0.20;;;;;;;;;;5064419;28;20056;-61
2022/07/02 09:59:21;;;;;;;3.42;0.30;;;;;;;;;;5064332;28;20045;-60
2022/07/02 10:01:47;;;;;;;4.35;0.40;;;;;;;;;;5064580;28;20044;-61
2022/07/02 10:04:14;;;;;;;1.63;0.43;;;;;;;;;;5064095;28;20036;-61
2022/07/02 10:06:42;;;;;;;2.88;0.40;;;;;;;;;;5064958;28;20048;-61
2022/07/02 10:09:08;;;;;;;;;;;;;;;;;;5065346;28;20036;-61
2022/07/02 10:11:36;;;;;;;2.50;0.20;;;;;;;;;;5063644;28;20381;-61
2022/07/02 10:14:03;;;;;;;1.88;0.38;;;;;;;;;;5054944;28;20040;-61
2022/07/02 10:16:30;;;;;;;0.75;0.20;;;;;;;;;;5063065;28;20510;-61
2022/07/02 10:18:59;;;;;;;1.17;0.20;;;;;;;;;;5064429;28;20047;-61
2022/07/02 10:21:25;;;;;;;2.15;0.30;;;;;;;;;;5064571;28;20087;-61
2022/07/02 10:23:51;;;;;;;2.13;0.20;;;;;;;;;;5064336;28;20040;-61
2022/07/02 10:26:18;;;;;;;2.00;0.40;;;;;;;;;;5064558;28;20075;-61
2022/07/02 10:28:44;;;;;;;2.88;0.50;;;;;;;;;;5064425;28;20094;-61
2022/07/02 10:31:18;;;;;;;3.30;0.35;;;;;;;;;;5063404;28;20123;-60
2022/07/02 10:33:47;;;;;;;1.60;0.30;;;;;;;;;;5061728;28;20617;-62
2022/07/02 10:36:14;;;;;;;1.08;0.20;;;;;;;;;;5047857;28;20127;-61
2022/07/02 10:38:41;;;;;;;3.80;0.40;;;;;;;;;;5062810;28;20139;-60
2022/07/02 10:41:09;;;;;;;0.60;0.28;;;;;;;;;;5066081;28;20283;-60
2022/07/02 10:43:38;;;;;;;0.63;0.20;;;;;;;;;;5065311;28;20850;-60
2022/07/02 10:46:05;;;;;;;2.30;0.20;;;;;;;;;;5065912;28;20117;-60
2022/07/02 10:48:34;;;;;;;1.83;0.30;;;;;;;;;;5066605;28;20708;-61
2022/07/02 10:51:01;;;;;;;0.57;0.20;;;;;;;;;;5066018;28;20043;-60
2022/07/02 10:53:29;;;;;;;1.25;0.20;;;;;;;;;;5066619;28;20036;-60
2022/07/02 10:55:55;;;;;;;11.60;0.70;;;;;;;;;;5065419;28;20048;-60
2022/07/02 10:58:23;;;;;;;4.32;0.60;;;;;;;;;;5066200;28;20036;-61
2022/07/02 11:00:49;;;;;;;1.35;0.30;;;;;;;;;;5065714;28;20140;-60
2022/07/02 11:03:16;;;;;;;1.65;0.30;;;;;;;;;;5064130;28;20037;-60
2022/07/02 11:05:58;;;;;;;1.13;0.20;;;;;;;;;;5065869;28;20135;-60
2022/07/02 11:08:48;;;;;;;0.85;0.30;;;;;;;;;;5062350;28;20099;-61
2022/07/02 11:11:17;;;;;;;2.50;0.20;;;;;;;;;;5065538;28;20105;-60
2022/07/02 11:13:45;;;;;;;2.63;0.30;;;;;;;;;;5064618;28;20153;-61
2022/07/02 11:16:20;;;;;;;5.13;0.32;;;;;;;;;;5065514;28;20048;-61
2022/07/02 11:18:47;;;;;;;2.85;0.30;;;;;;;;;;5061691;28;20664;-62
2022/07/02 11:21:14;;;;;;;1.30;0.30;;;;;;;;;;5064945;28;20162;-62
2022/07/02 11:23:40;;;;;;;1.77;0.25;;;;;;;;;;5064742;28;20045;-61
2022/07/02 11:26:08;;;;;;;1.25;0.30;;;;;;;;;;5055781;28;20135;-61
2022/07/02 11:28:35;;;;;;;2.30;0.40;;;;;;;;;;5060466;28;20041;-60
2022/07/02 11:31:02;;;;;;;1.73;0.30;;;;;;;;;;5062322;28;20037;-61
2022/07/02 11:33:28;;;;;;;2.28;0.20;;;;;;;;;;5059778;28;20051;-61
2022/07/02 11:35:55;;;;;;;2.17;0.30;;;;;;;;;;5063187;28;20041;-61
2022/07/02 11:38:21;;;;;;;1.40;0.40;;;;;;;;;;5067448;28;20493;-61
2022/07/02 11:40:48;;;;;;;1.20;0.30;;;;;;;;;;5063722;28;20132;-61
2022/07/02 11:43:16;;;;;;;1.63;0.30;;;;;;;;;;5062755;28;20044;-62
2022/07/02 11:45:43;;;;;;;1.23;0.30;;;;;;;;;;5062056;28;20414;-61
2022/07/02 11:48:18;;;;;;;1.55;0.40;;;;;;;;;;5064191;28;20045;-62
2022/07/02 11:50:44;;;;;;;2.08;0.40;;;;;;;;;;5071992;28;20130;-62
2022/07/02 11:53:11;;;;;;;3.63;0.60;;;;;;;;;;5064303;28;20044;-61
2022/07/02 11:55:37;;;;;;;2.15;0.40;;;;;;;;;;5063527;28;20110;-61
2022/07/02 11:58:03;;;;;;;3.42;0.73;;;;;;;;;;5063932;28;20055;-61
2022/07/02 12:00:31;;;;;;;1.73;0.28;;;;;;;;;;5063557;28;20109;-62
2022/07/02 12:02:57;;;;;;;4.88;0.50;;;;;;;;;;5062862;28;20048;-61
2022/07/02 12:05:24;;;;;;;1.25;0.30;;;;;;;;;;5055501;28;20040;-61
2022/07/02 12:07:50;;;;;;;1.23;0.50;;;;;;;;;;5053429;28;20063;-61
2022/07/02 12:10:16;;;;;;;2.83;0.30;;;;;;;;;;5054593;28;20044;-62
2022/07/02 12:12:43;;;;;;;2.97;0.70;;;;;;;;;;5055788;28;20053;-62
2022/07/02 12:15:10;;;;;;;1.48;0.30;;;;;;;;;;5055701;28;20056;-62
2022/07/02 12:17:36;;;;;;;1.88;0.60;;;;;;;;;;5053738;28;20059;-62
2022/07/02 12:20:04;;;;;;;1.05;0.40;;;;;;;;;;5054544;28;20121;-62
2022/07/02 12:22:33;;;;;;;1.67;0.50;;;;;;;;;;5053106;28;20045;-62
2022/07/02 12:24:59;;;;;;;1.25;0.30;;;;;;;;;;5048484;28;20044;-62
2022/07/02 12:27:26;;;;;;;2.83;0.55;;;;;;;;;;5052801;28;20052;-62
2022/07/02 12:29:53;;;;;;;8.68;0.70;;;;;;;;;;5051620;28;20186;-61
2022/07/02 12:32:21;;;;;;;8.40;0.70;;;;;;;;;;5052519;28;20037;-61
2022/07/02 12:34:47;;;;;;;;;;;;;;;;;;5052535;28;20420;-61
2022/07/02 12:37:21;;;;;;;5.05;0.43;;;;;;;;;;5048602;28;19967;-61
2022/07/02 12:39:47;;;;;;;2.55;0.40;;;;;;;;;;5050020;28;20049;-61
2022/07/02 12:42:15;;;;;;;2.40;0.85;;;;;;;;;;5048063;28;20083;-61
2022/07/02 12:44:53;;;;;;;5.07;1.45;;;;;;;;;;5051022;28;20041;-60
2022/07/02 12:47:24;;;;;;;6.25;0.50;;;;;;;;;;5055196;28;20454;-60
2022/07/02 12:49:52;;;;;;;3.28;0.40;;;;;;;;;;5058623;28;20536;-60
2022/07/02 12:52:18;;;;;;;3.08;0.40;;;;;;;;;;5059035;28;20036;-61
2022/07/02 12:54:45;;;;;;;2.85;0.35;;;;;;;;;;5057697;28;20127;-62
2022/07/02 12:57:16;;;;;;;3.10;0.60;;;;;;;;;;5058712;28;20044;-63
2022/07/02 12:59:43;;;;;;;3.95;0.50;;;;;;;;;;5056692;28;20474;-60
2022/07/02 13:02:13;;;;;;;2.65;0.32;;;;;;;;;;5059293;28;20709;-61
2022/07/02 13:04:39;;;;;;;2.47;0.50;;;;;;;;;;5058905;28;20476;-61
2022/07/02 13:07:05;;;;;;;3.53;0.50;;;;;;;;;;5059548;28;20091;-61
2022/07/02 13:09:32;;;;;;;2.75;0.50;;;;;;;;;;5058736;28;20037;-61
2022/07/02 13:11:58;;;;;;;2.10;0.50;;;;;;;;;;5058185;28;20095;-61
2022/07/02 13:14:24;;;;;;;3.05;0.40;;;;;;;;;;5058701;28;20048;-60
2022/07/02 13:16:50;;;;;;;9.00;0.60;;;;;;;;;;5057985;28;20119;-61
2022/07/02 13:19:16;;;;;;;3.55;0.60;;;;;;;;;;5058889;28;20494;-60
2022/07/02 13:21:42;;;;;;;4.13;0.70;;;;;;;;;;5059035;28;20040;-60
2022/07/02 13:24:09;;;;;;;5.90;0.70;;;;;;;;;;5058576;28;20040;-60
2022/07/02 13:26:35;;;;;;;1.83;0.55;;;;;;;;;;5058279;28;20036;-61
2022/07/02 13:29:01;;;;;;;5.38;0.50;;;;;;;;;;5057364;28;22422;-60
2022/07/02 13:31:27;;;;;;;4.25;0.70;;;;;;;;;;5057645;28;20056;-60
2022/07/02 13:33:54;;;;;;;7.55;0.70;;;;;;;;;;5052993;28;20076;-60
2022/07/02 13:36:20;;;;;;;3.45;0.50;;;;;;;;;;5048841;28;20048;-58
2022/07/02 13:38:46;;;;;;;5.35;0.50;;;;;;;;;;5052704;28;20029;-59
2022/07/02 13:41:12;;;;;;;5.05;0.68;;;;;;;;;;5056273;28;20067;-59
2022/07/02 13:43:39;;;;;;;7.25;1.02;;;;;;;;;;5059310;28;20043;-60
2022/07/02 13:46:05;;;;;;;3.35;0.40;;;;;;;;;;5055068;28;20110;-59
2022/07/02 13:48:31;;;;;;;2.47;0.50;;;;;;;;;;5050110;28;20045;-60
2022/07/02 13:50:57;;;;;;;1.83;0.55;;;;;;;;;;5050802;28;20826;-60
2022/07/02 13:53:23;;;;;;;2.67;0.30;;;;;;;;;;5052066;28;20048;-60
2022/07/02 13:55:50;;;;;;;5.50;0.40;;;;;;;;;;5054363;28;20059;-60
2022/07/02 13:58:16;;;;;;;2.28;0.70;;;;;;;;;;5052104;28;20075;-59
2022/07/02 14:00:42;;;;;;;2.58;0.55;;;;;;;;;;5049841;28;20040;-59
2022/07/02 14:03:08;;;;;;;3.28;0.57;;;;;;;;;;5054451;28;20143;-59
2022/07/02 14:05:34;;;;;;;4.82;0.60;;;;;;;;;;5054072;28;20082;-59
2022/07/02 14:08:01;;;;;;;4.05;0.60;;;;;;;;;;5061095;28;20087;-59
2022/07/02 14:10:28;;;;;;;1.13;0.50;;;;;;;;;;5061516;28;20120;-59
2022/07/02 14:12:54;;;;;;;2.20;0.50;;;;;;;;;;5057756;28;20040;-60
2022/07/02 14:15:20;;;;;;;3.60;0.60;;;;;;;;;;5049446;28;20057;-60
2022/07/02 14:17:47;;;;;;;1.60;0.52;;;;;;;;;;5065764;28;20079;-60
2022/07/02 14:20:13;;;;;;;2.13;0.63;;;;;;;;;;5051340;28;20045;-62
2022/07/02 14:22:39;;;;;;;3.13;0.60;;;;;;;;;;5051179;28;20130;-59
2022/07/02 14:25:06;;;;;;;5.07;0.80;;;;;;;;;;5050979;28;20549;-60
2022/07/02 14:27:32;;;;;;;5.50;0.57;;;;;;;;;;5063253;28;20040;-59
2022/07/02 14:29:58;;;;;;;3.33;0.50;;;;;;;;;;5062947;28;20040;-58
2022/07/02 14:32:24;;;;;;;1.00;0.40;;;;;;;;;;5061862;28;20154;-58
2022/07/02 14:34:50;;;;;;;1.63;0.43;;;;;;;;;;5064509;28;20115;-58
2022/07/02 14:37:17;;;;;;;2.55;0.60;;;;;;;;;;5063336;28;20051;-58
2022/07/02 14:39:43;;;;;;;2.28;0.40;;;;;;;;;;5062345;28;20044;-60
2022/07/02 14:42:10;;;;;;;3.15;0.50;;;;;;;;;;5061966;28;20036;-60
2022/07/02 14:44:36;;;;;;;2.78;0.70;;;;;;;;;;5059121;28;20079;-59
2022/07/02 14:47:02;;;;;;;1.75;0.40;;;;;;;;;;5057681;28;20500;-59